Time,TemperatureF,DewpointF,PressureIn,WindDirection,WindDirectionDegrees,WindSpeedMPH,WindSpeedGustMPH,Humidity,HourlyPrecipIn,Conditions,Clouds,dailyrainin,SoftwareType,DateUTC
2013-02-01 00:03:00,35.8,34.5,27.68,South,180,1.3,2.7,95,0.00,,,0.00,WUHU216HW,2013-02-01 08:03:00,
2013-02-01 00:08:00,35.8,34.5,27.69,WSW,248,1.8,3.4,95,0.00,,,0.00,WUHU216HW,2013-02-01 08:08:00,
2013-02-01 00:13:00,35.8,34.5,27.70,NNE,23,0.4,3.4,95,0.00,,,0.00,WUHU216HW,2013-02-01 08:13:00,
2013-02-01 00:18:00,35.6,34.3,27.70,NE,45,0.4,1.8,95,0.00,,,0.00,WUHU216HW,2013-02-01 08:18:00,
2013-02-01 00:23:00,35.5,34.1,27.70,SW,225,1.3,1.3,95,0.00,,,0.00,WUHU216HW,2013-02-01 08:23:00,
2013-02-01 00:28:00,35.6,34.3,27.69,SW,225,2.2,2.5,95,0.00,,,0.00,WUHU216HW,2013-02-01 08:28:00,
2013-02-01 00:33:00,35.6,34.3,27.69,SW,225,2.0,3.4,95,0.00,,,0.00,WUHU216HW,2013-02-01 08:33:00,
2013-02-01 00:38:00,35.6,34.3,27.69,SSW,203,3.6,3.6,95,0.00,,,0.00,WUHU216HW,2013-02-01 08:38:00,
2013-02-01 00:43:00,35.6,34.0,27.69,SSW,203,1.8,3.6,94,0.00,,,0.00,WUHU216HW,2013-02-01 08:43:00,
2013-02-01 00:48:00,35.6,34.0,27.69,SW,225,2.5,2.5,94,0.00,,,0.00,WUHU216HW,2013-02-01 08:48:00,
2013-02-01 00:53:00,35.5,33.8,27.69,SW,225,0.7,2.5,94,0.00,,,0.00,WUHU216HW,2013-02-01 08:53:00,
2013-02-01 00:58:00,35.3,33.7,27.70,SW,225,0.0,1.8,94,0.00,,,0.00,WUHU216HW,2013-02-01 08:58:00,
2013-02-01 01:03:00,35.3,33.7,27.70,SE,135,0.7,1.6,94,0.00,,,0.00,WUHU216HW,2013-02-01 09:03:00,
2013-02-01 01:08:00,35.1,33.8,27.70,SSW,203,0.7,1.8,95,0.00,,,0.00,WUHU216HW,2013-02-01 09:08:00,
2013-02-01 01:13:00,34.9,33.3,27.69,ESE,113,0.9,2.9,94,0.00,,,0.00,WUHU216HW,2013-02-01 09:13:00,
2013-02-01 01:18:00,34.9,33.3,27.69,SE,135,0.7,2.9,94,0.00,,,0.00,WUHU216HW,2013-02-01 09:18:00,
2013-02-01 01:23:00,34.9,33.6,27.70,WSW,248,1.8,1.8,95,0.00,,,0.00,WUHU216HW,2013-02-01 09:23:00,
2013-02-01 01:28:00,34.9,33.6,27.70,SSW,203,0.2,1.8,95,0.00,,,0.00,WUHU216HW,2013-02-01 09:28:00,
2013-02-01 01:33:00,34.7,33.4,27.71,SW,225,1.6,2.7,95,0.00,,,0.00,WUHU216HW,2013-02-01 09:33:00,
2013-02-01 01:38:00,34.7,33.4,27.71,SW,225,0.9,2.7,95,0.00,,,0.00,WUHU216HW,2013-02-01 09:38:00,
2013-02-01 01:43:00,34.6,33.2,27.70,SSW,203,2.5,2.5,95,0.00,,,0.00,WUHU216HW,2013-02-01 09:43:00,
2013-02-01 01:48:00,34.6,33.2,27.71,SSW,203,2.5,2.5,95,0.00,,,0.00,WUHU216HW,2013-02-01 09:48:00,
2013-02-01 01:53:00,34.6,33.2,27.71,SW,225,1.1,2.5,95,0.00,,,0.00,WUHU216HW,2013-02-01 09:53:00,
2013-02-01 01:58:00,34.4,33.0,27.71,SW,225,0.2,2.5,95,0.00,,,0.00,WUHU216HW,2013-02-01 09:58:00,
2013-02-01 02:03:00,34.4,33.0,27.72,South,180,1.6,2.5,95,0.00,,,0.00,WUHU216HW,2013-02-01 10:03:00,
2013-02-01 02:08:00,34.4,33.0,27.72,SSW,203,1.3,1.8,95,0.00,,,0.00,WUHU216HW,2013-02-01 10:08:00,
2013-02-01 02:13:00,34.2,32.6,27.72,SSW,203,1.1,2.2,94,0.00,,,0.00,WUHU216HW,2013-02-01 10:13:00,
2013-02-01 02:18:00,34.2,32.6,27.72,East,90,0.4,2.2,94,0.00,,,0.00,WUHU216HW,2013-02-01 10:18:00,
2013-02-01 02:23:00,34.2,32.9,27.72,South,180,0.9,1.8,95,0.00,,,0.00,WUHU216HW,2013-02-01 10:23:00,
2013-02-01 02:28:00,34.2,32.9,27.72,SE,135,0.4,1.1,95,0.00,,,0.00,WUHU216HW,2013-02-01 10:28:00,
2013-02-01 02:33:00,34.2,32.9,27.72,SW,225,3.1,3.1,95,0.00,,,0.00,WUHU216HW,2013-02-01 10:33:00,
2013-02-01 02:38:00,34.2,32.9,27.72,WSW,248,2.9,3.1,95,0.00,,,0.00,WUHU216HW,2013-02-01 10:38:00,
2013-02-01 02:43:00,34.0,32.7,27.72,WSW,248,0.4,2.9,95,0.00,,,0.00,WUHU216HW,2013-02-01 10:43:00,
2013-02-01 02:48:00,34.0,32.7,27.72,West,270,0.2,2.5,95,0.00,,,0.00,WUHU216HW,2013-02-01 10:48:00,
2013-02-01 02:53:00,34.0,32.7,27.72,West,270,1.8,2.5,95,0.00,,,0.00,WUHU216HW,2013-02-01 10:53:00,
2013-02-01 02:58:00,33.8,32.5,27.71,SW,225,2.9,2.9,95,0.00,,,0.00,WUHU216HW,2013-02-01 10:58:00,
2013-02-01 03:03:00,33.8,32.5,27.71,SW,225,2.7,4.0,95,0.00,,,0.00,WUHU216HW,2013-02-01 11:03:00,
2013-02-01 03:08:00,33.7,32.3,27.71,SW,225,0.9,4.0,95,0.00,,,0.00,WUHU216HW,2013-02-01 11:08:00,
2013-02-01 03:13:00,33.7,32.3,27.71,SW,225,2.9,2.9,95,0.00,,,0.00,WUHU216HW,2013-02-01 11:13:00,
2013-02-01 03:18:00,33.5,32.1,27.70,WSW,248,0.7,2.9,95,0.00,,,0.00,WUHU216HW,2013-02-01 11:18:00,
2013-02-01 03:23:00,33.7,32.3,27.70,SSW,203,1.1,2.0,95,0.00,,,0.00,WUHU216HW,2013-02-01 11:23:00,
2013-02-01 03:28:00,33.5,32.1,27.70,South,180,1.1,2.0,95,0.00,,,0.00,WUHU216HW,2013-02-01 11:28:00,
2013-02-01 03:33:00,33.5,32.1,27.70,SW,225,0.9,1.8,95,0.00,,,0.00,WUHU216HW,2013-02-01 11:33:00,
2013-02-01 03:38:00,33.3,32.0,27.70,SW,225,0.4,1.8,95,0.00,,,0.00,WUHU216HW,2013-02-01 11:38:00,
2013-02-01 03:43:00,33.3,32.0,27.70,SSW,203,0.4,0.7,95,0.00,,,0.00,WUHU216HW,2013-02-01 11:43:00,
2013-02-01 03:48:00,33.1,31.8,27.70,SW,225,0.0,1.1,95,0.00,,,0.00,WUHU216HW,2013-02-01 11:48:00,
2013-02-01 03:53:00,33.1,31.8,27.70,SSW,203,1.8,1.8,95,0.00,,,0.00,WUHU216HW,2013-02-01 11:53:00,
2013-02-01 03:58:00,32.9,31.7,27.70,SW,225,1.3,2.5,95,0.00,,,0.00,WUHU216HW,2013-02-01 11:58:00,
2013-02-01 04:03:00,32.9,31.7,27.70,SW,225,0.4,2.5,95,0.00,,,0.00,WUHU216HW,2013-02-01 12:03:00,
2013-02-01 04:08:00,32.8,31.5,27.70,SW,225,0.4,1.1,95,0.00,,,0.00,WUHU216HW,2013-02-01 12:08:00,
2013-02-01 04:13:00,32.8,31.5,27.71,SSW,203,0.4,0.7,95,0.00,,,0.00,WUHU216HW,2013-02-01 12:13:00,
2013-02-01 04:18:00,32.8,31.5,27.71,WSW,248,0.0,1.3,95,0.00,,,0.00,WUHU216HW,2013-02-01 12:18:00,
2013-02-01 04:23:00,32.8,31.5,27.71,SE,135,0.0,1.8,95,0.00,,,0.00,WUHU216HW,2013-02-01 12:23:00,
2013-02-01 04:28:00,32.8,31.5,27.71,SW,225,0.0,1.8,95,0.00,,,0.00,WUHU216HW,2013-02-01 12:28:00,
2013-02-01 04:33:00,32.8,31.5,27.71,ESE,113,0.4,0.9,95,0.00,,,0.00,WUHU216HW,2013-02-01 12:33:00,
2013-02-01 04:38:00,32.8,31.5,27.71,SSW,203,0.7,0.9,95,0.00,,,0.00,WUHU216HW,2013-02-01 12:38:00,
2013-02-01 04:43:00,32.8,31.5,27.71,SSW,203,0.4,1.1,95,0.00,,,0.00,WUHU216HW,2013-02-01 12:43:00,
2013-02-01 04:48:00,32.8,31.5,27.71,South,180,0.0,1.1,95,0.00,,,0.00,WUHU216HW,2013-02-01 12:48:00,
2013-02-01 04:53:00,32.8,31.5,27.71,East,90,0.4,1.1,95,0.00,,,0.00,WUHU216HW,2013-02-01 12:53:00,
2013-02-01 04:58:00,32.8,31.5,27.71,SSW,203,0.2,0.4,95,0.00,,,0.00,WUHU216HW,2013-02-01 12:58:00,
2013-02-01 05:03:00,32.8,31.5,27.71,SSW,203,0.0,0.7,95,0.00,,,0.00,WUHU216HW,2013-02-01 13:03:00,
2013-02-01 05:08:00,32.6,31.3,27.71,SW,225,0.7,0.7,95,0.00,,,0.00,WUHU216HW,2013-02-01 13:08:00,
2013-02-01 05:13:00,32.6,31.3,27.71,SSW,203,0.4,0.7,95,0.00,,,0.00,WUHU216HW,2013-02-01 13:13:00,
2013-02-01 05:18:00,32.6,31.3,27.71,SSW,203,0.0,0.7,95,0.00,,,0.00,WUHU216HW,2013-02-01 13:18:00,
2013-02-01 05:23:00,32.6,31.3,27.71,SSW,203,0.0,0.4,95,0.00,,,0.00,WUHU216HW,2013-02-01 13:23:00,
2013-02-01 05:28:00,32.6,31.3,27.70,SSW,203,0.0,0.4,95,0.00,,,0.00,WUHU216HW,2013-02-01 13:28:00,
2013-02-01 05:33:00,32.6,31.3,27.70,SSW,203,0.4,0.4,95,0.00,,,0.00,WUHU216HW,2013-02-01 13:33:00,
2013-02-01 05:38:00,32.4,31.2,27.70,SSW,203,0.4,0.4,95,0.00,,,0.00,WUHU216HW,2013-02-01 13:38:00,
2013-02-01 05:43:00,32.4,31.2,27.69,SSW,203,1.1,2.5,95,0.00,,,0.00,WUHU216HW,2013-02-01 13:43:00,
2013-02-01 05:48:00,32.2,31.0,27.71,SSW,203,0.9,2.5,95,0.00,,,0.00,WUHU216HW,2013-02-01 13:48:00,
2013-02-01 05:53:00,32.0,30.8,27.71,SSW,203,0.7,1.8,95,0.00,,,0.00,WUHU216HW,2013-02-01 13:53:00,
2013-02-01 05:58:00,32.0,30.8,27.71,WSW,248,0.0,1.1,95,0.00,,,0.00,WUHU216HW,2013-02-01 13:58:00,
2013-02-01 06:03:00,32.0,30.8,27.71,SW,225,0.0,0.4,95,0.00,,,0.00,WUHU216HW,2013-02-01 14:03:00,
2013-02-01 06:08:00,32.2,31.0,27.70,SW,225,0.0,0.0,95,0.00,,,0.00,WUHU216HW,2013-02-01 14:08:00,
2013-02-01 06:13:00,32.2,31.0,27.70,SW,225,0.0,0.0,95,0.00,,,0.00,WUHU216HW,2013-02-01 14:13:00,
2013-02-01 06:18:00,32.2,31.0,27.71,SW,225,0.0,0.0,95,0.00,,,0.00,WUHU216HW,2013-02-01 14:18:00,
2013-02-01 06:23:00,32.2,31.0,27.70,SE,135,0.2,0.7,95,0.00,,,0.00,WUHU216HW,2013-02-01 14:23:00,
2013-02-01 06:28:00,32.2,31.0,27.70,ESE,113,0.0,0.7,95,0.00,,,0.00,WUHU216HW,2013-02-01 14:28:00,
2013-02-01 06:33:00,32.2,31.0,27.71,SSE,158,0.0,0.7,95,0.00,,,0.00,WUHU216HW,2013-02-01 14:33:00,
2013-02-01 06:38:00,32.4,31.2,27.71,SSE,158,0.0,0.4,95,0.00,,,0.00,WUHU216HW,2013-02-01 14:38:00,
2013-02-01 06:43:00,32.4,31.2,27.71,SE,135,0.0,0.0,95,0.00,,,0.00,WUHU216HW,2013-02-01 14:43:00,
2013-02-01 06:48:00,32.4,31.2,27.71,SE,135,0.0,0.0,95,0.00,,,0.00,WUHU216HW,2013-02-01 14:48:00,
2013-02-01 06:53:00,32.4,31.2,27.71,SE,135,0.0,0.0,95,0.00,,,0.00,WUHU216HW,2013-02-01 14:53:00,
2013-02-01 06:58:00,32.4,31.2,27.72,SSE,158,0.0,0.4,95,0.00,,,0.00,WUHU216HW,2013-02-01 14:58:00,
2013-02-01 07:03:00,32.2,31.0,27.72,SSE,158,0.0,0.4,95,0.00,,,0.00,WUHU216HW,2013-02-01 15:03:00,
2013-02-01 07:08:00,32.2,31.0,27.73,SSE,158,0.0,0.0,95,0.00,,,0.00,WUHU216HW,2013-02-01 15:08:00,
2013-02-01 07:13:00,32.4,31.2,27.73,SSE,158,0.0,0.0,95,0.00,,,0.00,WUHU216HW,2013-02-01 15:13:00,
2013-02-01 07:18:00,32.2,31.0,27.74,SSE,158,0.2,0.2,95,0.00,,,0.00,WUHU216HW,2013-02-01 15:18:00,
2013-02-01 07:23:00,32.2,31.0,27.74,ESE,113,0.0,0.2,95,0.00,,,0.00,WUHU216HW,2013-02-01 15:23:00,
2013-02-01 07:28:00,32.2,31.0,27.74,SE,135,0.0,0.2,95,0.00,,,0.00,WUHU216HW,2013-02-01 15:28:00,
2013-02-01 07:33:00,32.2,31.0,27.74,SSE,158,0.0,0.2,95,0.00,,,0.00,WUHU216HW,2013-02-01 15:33:00,
2013-02-01 07:38:00,32.2,31.0,27.75,South,180,0.0,0.2,95,0.00,,,0.00,WUHU216HW,2013-02-01 15:38:00,
2013-02-01 07:43:00,32.4,31.2,27.74,South,180,0.0,0.0,95,0.00,,,0.00,WUHU216HW,2013-02-01 15:43:00,
2013-02-01 07:48:00,32.4,31.2,27.74,ESE,113,0.4,0.4,95,0.00,,,0.00,WUHU216HW,2013-02-01 15:48:00,
2013-02-01 07:53:00,32.2,31.0,27.75,ESE,113,0.2,1.6,95,0.00,,,0.00,WUHU216HW,2013-02-01 15:53:00,
2013-02-01 07:58:00,32.4,31.2,27.75,SW,225,0.0,1.6,95,0.00,,,0.00,WUHU216HW,2013-02-01 15:58:00,
2013-02-01 08:03:00,32.4,31.2,27.74,SSE,158,0.0,0.2,95,0.00,,,0.00,WUHU216HW,2013-02-01 16:03:00,
2013-02-01 08:08:00,32.4,31.2,27.75,SE,135,0.0,0.2,95,0.00,,,0.00,WUHU216HW,2013-02-01 16:08:00,
2013-02-01 08:13:00,32.4,31.2,27.75,ESE,113,1.8,1.8,95,0.00,,,0.00,WUHU216HW,2013-02-01 16:13:00,
2013-02-01 08:18:00,32.6,31.3,27.76,SE,135,2.2,2.9,95,0.00,,,0.00,WUHU216HW,2013-02-01 16:18:00,
2013-02-01 08:23:00,32.4,31.2,27.76,East,90,1.6,2.9,95,0.00,,,0.00,WUHU216HW,2013-02-01 16:23:00,
2013-02-01 08:28:00,32.4,31.2,27.76,East,90,1.1,3.4,95,0.00,,,0.00,WUHU216HW,2013-02-01 16:28:00,
2013-02-01 08:33:00,32.2,31.0,27.76,SE,135,1.1,3.4,95,0.00,,,0.00,WUHU216HW,2013-02-01 16:33:00,
2013-02-01 08:38:00,32.4,31.2,27.77,ESE,113,0.2,2.0,95,0.00,,,0.00,WUHU216HW,2013-02-01 16:38:00,
2013-02-01 08:43:00,32.4,31.2,27.77,SE,135,0.4,1.1,95,0.00,,,0.00,WUHU216HW,2013-02-01 16:43:00,
2013-02-01 08:48:00,32.4,31.2,27.77,SSE,158,1.8,1.8,95,0.00,,,0.00,WUHU216HW,2013-02-01 16:48:00,
2013-02-01 08:52:00,32.4,31.2,27.77,SE,135,3.4,3.4,95,0.00,,,0.00,WUHU216HW,2013-02-01 16:52:00,
2013-02-01 08:58:00,32.4,31.2,27.78,ESE,113,1.8,3.4,95,0.00,,,0.00,WUHU216HW,2013-02-01 16:58:00,
2013-02-01 09:03:00,32.4,31.2,27.78,ESE,113,0.2,2.5,95,0.00,,,0.00,WUHU216HW,2013-02-01 17:03:00,
2013-02-01 09:08:00,32.4,31.2,27.78,SE,135,1.1,2.5,95,0.00,,,0.00,WUHU216HW,2013-02-01 17:08:00,
2013-02-01 09:12:00,32.4,31.2,27.78,SSE,158,0.0,2.2,95,0.00,,,0.00,WUHU216HW,2013-02-01 17:12:00,
2013-02-01 09:17:00,32.8,31.5,27.78,SSW,203,1.8,1.8,95,0.00,,,0.00,WUHU216HW,2013-02-01 17:17:00,
2013-02-01 09:22:00,32.6,31.3,27.78,South,180,0.4,1.8,95,0.00,,,0.00,WUHU216HW,2013-02-01 17:22:00,
2013-02-01 09:27:00,32.8,31.5,27.78,South,180,0.9,1.6,95,0.00,,,0.00,WUHU216HW,2013-02-01 17:27:00,
2013-02-01 09:32:00,32.8,31.5,27.79,SSE,158,0.0,1.6,95,0.00,,,0.00,WUHU216HW,2013-02-01 17:32:00,
2013-02-01 09:37:00,33.1,31.8,27.79,ESE,113,1.1,1.6,95,0.00,,,0.00,WUHU216HW,2013-02-01 17:37:00,
2013-02-01 09:42:00,33.1,31.8,27.79,SSE,158,1.1,2.5,95,0.00,,,0.00,WUHU216HW,2013-02-01 17:42:00,
2013-02-01 09:47:00,32.9,31.7,27.79,SSE,158,1.6,2.9,95,0.00,,,0.00,WUHU216HW,2013-02-01 17:47:00,
2013-02-01 09:52:00,33.1,31.8,27.79,SE,135,0.9,2.9,95,0.00,,,0.00,WUHU216HW,2013-02-01 17:52:00,
2013-02-01 09:57:00,33.3,32.0,27.79,SE,135,1.1,1.3,95,0.00,,,0.00,WUHU216HW,2013-02-01 17:57:00,
2013-02-01 10:02:00,33.3,32.0,27.79,SE,135,0.4,1.6,95,0.00,,,0.00,WUHU216HW,2013-02-01 18:02:00,
2013-02-01 10:07:00,33.5,31.9,27.79,SSE,158,1.1,1.6,94,0.00,,,0.00,WUHU216HW,2013-02-01 18:07:00,
2013-02-01 10:12:00,33.5,31.9,27.79,SSW,203,0.4,1.1,94,0.00,,,0.00,WUHU216HW,2013-02-01 18:12:00,
2013-02-01 10:17:00,33.5,31.9,27.79,South,180,1.1,3.4,94,0.00,,,0.00,WUHU216HW,2013-02-01 18:17:00,
2013-02-01 10:22:00,33.5,31.9,27.79,SE,135,1.1,3.4,94,0.00,,,0.00,WUHU216HW,2013-02-01 18:22:00,
2013-02-01 10:27:00,33.5,31.9,27.79,SSE,158,1.1,2.0,94,0.00,,,0.00,WUHU216HW,2013-02-01 18:27:00,
2013-02-01 10:32:00,33.8,32.5,27.79,SSE,158,0.0,1.3,95,0.00,,,0.00,WUHU216HW,2013-02-01 18:32:00,
2013-02-01 10:37:00,34.0,32.4,27.79,ESE,113,1.1,1.3,94,0.00,,,0.00,WUHU216HW,2013-02-01 18:37:00,
2013-02-01 10:42:00,34.0,32.4,27.80,SE,135,1.1,1.3,94,0.00,,,0.00,WUHU216HW,2013-02-01 18:42:00,
2013-02-01 10:47:00,34.2,32.6,27.80,ESE,113,2.9,2.9,94,0.00,,,0.00,WUHU216HW,2013-02-01 18:47:00,
2013-02-01 10:52:00,33.8,32.2,27.80,SE,135,1.1,3.4,94,0.00,,,0.00,WUHU216HW,2013-02-01 18:52:00,
2013-02-01 10:57:00,34.2,32.6,27.81,ESE,113,2.9,3.4,94,0.00,,,0.00,WUHU216HW,2013-02-01 18:57:00,
2013-02-01 11:02:00,34.6,32.9,27.81,SE,135,1.6,2.9,94,0.00,,,0.00,WUHU216HW,2013-02-01 19:02:00,
2013-02-01 11:07:00,34.6,32.7,27.81,ESE,113,0.4,2.9,93,0.00,,,0.00,WUHU216HW,2013-02-01 19:07:00,
2013-02-01 11:12:00,34.4,32.5,27.81,ESE,113,1.8,2.5,93,0.00,,,0.00,WUHU216HW,2013-02-01 19:12:00,
2013-02-01 11:17:00,34.4,32.5,27.81,SE,135,0.4,2.5,93,0.00,,,0.00,WUHU216HW,2013-02-01 19:17:00,
2013-02-01 11:22:00,34.7,32.9,27.81,SSW,203,0.4,1.6,93,0.00,,,0.00,WUHU216HW,2013-02-01 19:22:00,
2013-02-01 11:27:00,34.9,32.8,27.81,SE,135,0.7,1.8,92,0.00,,,0.00,WUHU216HW,2013-02-01 19:27:00,
2013-02-01 11:32:00,34.9,32.8,27.81,South,180,0.2,1.8,92,0.00,,,0.00,WUHU216HW,2013-02-01 19:32:00,
2013-02-01 11:37:00,34.9,32.8,27.81,NE,45,0.0,1.6,92,0.00,,,0.00,WUHU216HW,2013-02-01 19:37:00,
2013-02-01 11:42:00,35.3,32.9,27.81,ESE,113,2.2,2.2,91,0.00,,,0.00,WUHU216HW,2013-02-01 19:42:00,
2013-02-01 11:47:00,35.6,33.2,27.81,SE,135,0.2,2.2,91,0.00,,,0.00,WUHU216HW,2013-02-01 19:47:00,
2013-02-01 11:52:00,35.6,32.9,27.81,SE,135,0.4,1.8,90,0.00,,,0.00,WUHU216HW,2013-02-01 19:52:00,
2013-02-01 11:57:00,35.6,32.9,27.81,SSE,158,1.1,1.3,90,0.00,,,0.00,WUHU216HW,2013-02-01 19:57:00,
2013-02-01 12:02:00,35.8,33.1,27.81,SSE,158,0.4,1.6,90,0.00,,,0.00,WUHU216HW,2013-02-01 20:02:00,
2013-02-01 12:07:00,36.0,33.0,27.81,SE,135,0.9,1.6,89,0.00,,,0.00,WUHU216HW,2013-02-01 20:07:00,
2013-02-01 12:12:00,36.0,33.3,27.81,SSW,203,0.4,2.0,90,0.00,,,0.00,WUHU216HW,2013-02-01 20:12:00,
2013-02-01 12:17:00,36.2,33.2,27.82,SE,135,0.4,2.0,89,0.00,,,0.00,WUHU216HW,2013-02-01 20:17:00,
2013-02-01 12:22:00,36.4,33.4,27.82,East,90,2.0,2.0,89,0.00,,,0.00,WUHU216HW,2013-02-01 20:22:00,
2013-02-01 12:27:00,36.4,33.4,27.81,SE,135,0.2,2.0,89,0.00,,,0.00,WUHU216HW,2013-02-01 20:27:00,
2013-02-01 12:32:00,36.7,33.5,27.81,SE,135,1.8,2.0,88,0.00,,,0.00,WUHU216HW,2013-02-01 20:32:00,
2013-02-01 12:37:00,37.1,33.9,27.81,East,90,1.1,1.8,88,0.00,,,0.00,WUHU216HW,2013-02-01 20:37:00,
2013-02-01 12:42:00,37.1,33.9,27.81,ESE,113,0.0,1.8,88,0.00,,,0.00,WUHU216HW,2013-02-01 20:42:00,
2013-02-01 12:47:00,37.4,34.2,27.81,SE,135,1.1,1.6,88,0.00,,,0.00,WUHU216HW,2013-02-01 20:47:00,
2013-02-01 12:52:00,37.4,33.8,27.81,SE,135,1.1,1.8,87,0.00,,,0.00,WUHU216HW,2013-02-01 20:52:00,
2013-02-01 12:57:00,37.4,33.8,27.81,ESE,113,1.8,1.8,87,0.00,,,0.00,WUHU216HW,2013-02-01 20:57:00,
2013-02-01 13:02:00,37.8,34.2,27.81,East,90,0.7,1.8,87,0.00,,,0.00,WUHU216HW,2013-02-01 21:02:00,
2013-02-01 13:07:00,38.0,34.4,27.81,SW,225,0.7,3.4,87,0.00,,,0.00,WUHU216HW,2013-02-01 21:07:00,
2013-02-01 13:12:00,38.5,34.9,27.81,ESE,113,0.4,3.4,87,0.00,,,0.00,WUHU216HW,2013-02-01 21:12:00,
2013-02-01 13:17:00,39.4,35.0,27.81,SSE,158,1.1,2.5,84,0.00,,,0.00,WUHU216HW,2013-02-01 21:17:00,
2013-02-01 13:22:00,39.8,35.3,27.81,SW,225,0.9,2.5,84,0.00,,,0.00,WUHU216HW,2013-02-01 21:22:00,
2013-02-01 13:27:00,39.2,34.6,27.81,SSW,203,0.4,2.5,83,0.00,,,0.00,WUHU216HW,2013-02-01 21:27:00,
2013-02-01 13:32:00,38.9,34.7,27.81,ESE,113,0.9,1.8,85,0.00,,,0.00,WUHU216HW,2013-02-01 21:32:00,
2013-02-01 13:37:00,38.9,34.5,27.81,ESE,113,1.8,1.8,84,0.00,,,0.00,WUHU216HW,2013-02-01 21:37:00,
2013-02-01 13:43:00,38.9,34.5,27.81,SSW,203,0.7,1.8,84,0.00,,,0.00,WUHU216HW,2013-02-01 21:43:00,
2013-02-01 13:48:00,38.7,34.3,27.81,SSE,158,0.9,2.7,84,0.00,,,0.00,WUHU216HW,2013-02-01 21:48:00,
2013-02-01 13:53:00,38.5,34.4,27.81,SE,135,2.5,2.7,85,0.00,,,0.00,WUHU216HW,2013-02-01 21:53:00,
2013-02-01 13:58:00,38.2,34.0,27.82,ESE,113,1.8,2.5,85,0.00,,,0.00,WUHU216HW,2013-02-01 21:58:00,
2013-02-01 14:03:00,38.3,34.5,27.82,ESE,113,0.7,2.5,86,0.00,,,0.00,WUHU216HW,2013-02-01 22:03:00,
2013-02-01 14:08:00,38.5,34.4,27.82,SE,135,0.2,1.6,85,0.00,,,0.00,WUHU216HW,2013-02-01 22:08:00,
2013-02-01 14:13:00,38.9,34.5,27.82,SE,135,1.8,1.8,84,0.00,,,0.00,WUHU216HW,2013-02-01 22:13:00,
2013-02-01 14:18:00,38.9,34.5,27.82,ESE,113,1.8,1.8,84,0.00,,,0.00,WUHU216HW,2013-02-01 22:18:00,
2013-02-01 14:23:00,38.9,34.5,27.82,WSW,248,0.7,1.8,84,0.00,,,0.00,WUHU216HW,2013-02-01 22:23:00,
2013-02-01 14:28:00,39.1,34.7,27.82,SE,135,0.9,1.8,84,0.00,,,0.00,WUHU216HW,2013-02-01 22:28:00,
2013-02-01 14:33:00,39.2,34.8,27.82,ESE,113,2.2,2.2,84,0.00,,,0.00,WUHU216HW,2013-02-01 22:33:00,
2013-02-01 14:38:00,39.2,34.8,27.83,SSE,158,1.1,2.2,84,0.00,,,0.00,WUHU216HW,2013-02-01 22:38:00,
2013-02-01 14:43:00,39.8,35.3,27.83,SSE,158,0.4,1.8,84,0.00,,,0.00,WUHU216HW,2013-02-01 22:43:00,
2013-02-01 14:48:00,40.1,35.1,27.83,SE,135,1.1,1.8,82,0.00,,,0.00,WUHU216HW,2013-02-01 22:48:00,
2013-02-01 14:53:00,40.0,34.9,27.83,SE,135,2.2,2.2,82,0.00,,,0.00,WUHU216HW,2013-02-01 22:53:00,
2013-02-01 14:58:00,40.0,34.9,27.83,SE,135,0.4,2.2,82,0.00,,,0.00,WUHU216HW,2013-02-01 22:58:00,
2013-02-01 15:03:00,39.8,35.0,27.83,SE,135,0.7,2.5,83,0.00,,,0.00,WUHU216HW,2013-02-01 23:03:00,
2013-02-01 15:08:00,40.0,34.9,27.82,SE,135,0.7,2.5,82,0.00,,,0.00,WUHU216HW,2013-02-01 23:08:00,
2013-02-01 15:13:00,40.7,35.6,27.82,ESE,113,0.4,2.0,82,0.00,,,0.00,WUHU216HW,2013-02-01 23:13:00,
2013-02-01 15:18:00,42.8,37.7,27.82,SW,225,0.0,1.3,82,0.00,,,0.00,WUHU216HW,2013-02-01 23:18:00,
2013-02-01 15:23:00,42.8,36.5,27.83,SW,225,1.1,1.1,78,0.00,,,0.00,WUHU216HW,2013-02-01 23:23:00,
2013-02-01 15:28:00,41.8,35.6,27.83,ESE,113,1.3,1.3,79,0.00,,,0.00,WUHU216HW,2013-02-01 23:28:00,
2013-02-01 15:33:00,41.4,35.9,27.83,ESE,113,0.0,1.3,81,0.00,,,0.00,WUHU216HW,2013-02-01 23:33:00,
2013-02-01 15:38:00,41.4,35.3,27.83,SW,225,0.0,1.1,79,0.00,,,0.00,WUHU216HW,2013-02-01 23:38:00,
2013-02-01 15:43:00,41.2,34.5,27.83,SSW,203,1.6,1.6,77,0.00,,,0.00,WUHU216HW,2013-02-01 23:43:00,
2013-02-01 15:48:00,40.7,33.9,27.83,SSW,203,1.8,2.5,77,0.00,,,0.00,WUHU216HW,2013-02-01 23:48:00,
2013-02-01 15:53:00,40.5,33.9,27.83,SSW,203,2.5,2.5,77,0.00,,,0.00,WUHU216HW,2013-02-01 23:53:00,
2013-02-01 15:58:00,40.5,33.9,27.83,WNW,293,0.9,2.5,77,0.00,,,0.00,WUHU216HW,2013-02-01 23:58:00,
2013-02-01 16:03:00,40.3,33.7,27.84,SW,225,0.9,1.6,77,0.00,,,0.00,WUHU216HW,2013-02-02 00:03:00,
2013-02-01 16:08:00,40.0,33.3,27.84,SW,225,1.8,3.4,77,0.00,,,0.00,WUHU216HW,2013-02-02 00:08:00,
2013-02-01 16:13:00,39.8,33.5,27.84,WSW,248,0.4,3.4,78,0.00,,,0.00,WUHU216HW,2013-02-02 00:13:00,
2013-02-01 16:18:00,39.6,33.7,27.84,ENE,68,0.0,2.0,79,0.00,,,0.00,WUHU216HW,2013-02-02 00:18:00,
2013-02-01 16:23:00,39.1,33.5,27.84,NNE,23,0.4,0.4,80,0.00,,,0.00,WUHU216HW,2013-02-02 00:23:00,
2013-02-01 16:28:00,38.3,33.0,27.84,NNE,23,0.0,0.4,81,0.00,,,0.00,WUHU216HW,2013-02-02 00:28:00,
2013-02-01 16:33:00,37.6,32.6,27.84,NNE,23,0.0,0.4,82,0.00,,,0.00,WUHU216HW,2013-02-02 00:33:00,
2013-02-01 16:38:00,37.1,32.4,27.84,NNE,23,0.0,0.2,83,0.00,,,0.00,WUHU216HW,2013-02-02 00:38:00,
2013-02-01 16:43:00,36.5,32.1,27.84,NNE,23,0.2,0.2,84,0.00,,,0.00,WUHU216HW,2013-02-02 00:43:00,
2013-02-01 16:48:00,36.0,31.6,27.84,NNE,23,0.0,0.2,84,0.00,,,0.00,WUHU216HW,2013-02-02 00:48:00,
2013-02-01 16:53:00,35.5,31.1,27.84,NNE,23,0.0,0.0,84,0.00,,,0.00,WUHU216HW,2013-02-02 00:53:00,
2013-02-01 16:58:00,34.9,30.8,27.84,NNE,23,0.0,0.0,85,0.00,,,0.00,WUHU216HW,2013-02-02 00:58:00,
2013-02-01 17:03:00,34.6,30.4,27.84,ENE,68,0.0,0.0,85,0.00,,,0.00,WUHU216HW,2013-02-02 01:03:00,
2013-02-01 17:08:00,33.8,30.0,27.84,ENE,68,0.0,0.0,86,0.00,,,0.00,WUHU216HW,2013-02-02 01:08:00,
2013-02-01 17:13:00,33.5,29.7,27.84,ENE,68,0.0,0.0,86,0.00,,,0.00,WUHU216HW,2013-02-02 01:13:00,
2013-02-01 17:18:00,33.1,29.3,27.84,ENE,68,0.0,0.0,86,0.00,,,0.00,WUHU216HW,2013-02-02 01:18:00,
2013-02-01 17:23:00,32.6,29.2,27.84,ENE,68,0.0,0.0,87,0.00,,,0.00,WUHU216HW,2013-02-02 01:23:00,
2013-02-01 17:28:00,32.2,29.1,27.84,ENE,68,0.0,0.2,88,0.00,,,0.00,WUHU216HW,2013-02-02 01:28:00,
2013-02-01 17:33:00,31.9,28.8,27.84,ENE,68,0.2,0.2,88,0.00,,,0.00,WUHU216HW,2013-02-02 01:33:00,
2013-02-01 17:38:00,31.5,28.5,27.84,ESE,113,0.0,0.2,88,0.00,,,0.00,WUHU216HW,2013-02-02 01:38:00,
2013-02-01 17:43:00,31.1,28.4,27.84,ENE,68,0.4,0.4,89,0.00,,,0.00,WUHU216HW,2013-02-02 01:43:00,
2013-02-01 17:48:00,31.0,28.2,27.84,ENE,68,0.0,0.4,89,0.00,,,0.00,WUHU216HW,2013-02-02 01:48:00,
2013-02-01 17:53:00,30.8,28.0,27.84,East,90,0.0,0.4,89,0.00,,,0.00,WUHU216HW,2013-02-02 01:53:00,
2013-02-01 17:58:00,30.6,27.8,27.84,East,90,0.0,0.2,89,0.00,,,0.00,WUHU216HW,2013-02-02 01:58:00,
2013-02-01 18:03:00,30.2,27.5,27.84,ESE,113,0.0,0.0,89,0.00,,,0.00,WUHU216HW,2013-02-02 02:03:00,
2013-02-01 18:08:00,29.9,27.1,27.84,ENE,68,0.0,0.0,89,0.00,,,0.00,WUHU216HW,2013-02-02 02:08:00,
2013-02-01 18:13:00,29.9,27.4,27.84,ENE,68,0.0,0.0,90,0.00,,,0.00,WUHU216HW,2013-02-02 02:13:00,
2013-02-01 18:18:00,29.7,27.2,27.84,ENE,68,0.0,0.0,90,0.00,,,0.00,WUHU216HW,2013-02-02 02:18:00,
2013-02-01 18:23:00,29.5,27.0,27.84,ENE,68,0.0,0.0,90,0.00,,,0.00,WUHU216HW,2013-02-02 02:23:00,
2013-02-01 18:28:00,29.3,27.1,27.84,ENE,68,0.0,0.0,91,0.00,,,0.00,WUHU216HW,2013-02-02 02:28:00,
2013-02-01 18:33:00,29.2,26.6,27.84,ENE,68,0.0,0.0,90,0.00,,,0.00,WUHU216HW,2013-02-02 02:33:00,
2013-02-01 18:38:00,29.0,26.5,27.84,ENE,68,0.0,0.0,90,0.00,,,0.00,WUHU216HW,2013-02-02 02:38:00,
2013-02-01 18:43:00,29.0,26.7,27.85,ENE,68,0.0,0.0,91,0.00,,,0.00,WUHU216HW,2013-02-02 02:43:00,
2013-02-01 18:48:00,28.8,26.6,27.85,ESE,113,0.0,0.0,91,0.00,,,0.00,WUHU216HW,2013-02-02 02:48:00,
2013-02-01 18:53:00,28.8,26.6,27.85,ESE,113,0.0,0.0,91,0.00,,,0.00,WUHU216HW,2013-02-02 02:53:00,
2013-02-01 18:58:00,28.4,26.2,27.85,ENE,68,0.0,0.0,91,0.00,,,0.00,WUHU216HW,2013-02-02 02:58:00,
2013-02-01 19:03:00,28.4,26.2,27.85,ENE,68,0.0,0.0,91,0.00,,,0.00,WUHU216HW,2013-02-02 03:03:00,
2013-02-01 19:08:00,28.4,26.2,27.85,ENE,68,0.0,0.0,91,0.00,,,0.00,WUHU216HW,2013-02-02 03:08:00,
2013-02-01 19:13:00,28.1,25.8,27.85,ENE,68,0.0,0.0,91,0.00,,,0.00,WUHU216HW,2013-02-02 03:13:00,
2013-02-01 19:18:00,28.1,26.1,27.85,ESE,113,0.0,0.0,92,0.00,,,0.00,WUHU216HW,2013-02-02 03:18:00,
2013-02-01 19:23:00,28.1,26.1,27.85,ESE,113,0.0,0.0,92,0.00,,,0.00,WUHU216HW,2013-02-02 03:23:00,
2013-02-01 19:28:00,27.9,25.9,27.85,ESE,113,0.0,0.0,92,0.00,,,0.00,WUHU216HW,2013-02-02 03:28:00,
2013-02-01 19:33:00,27.7,25.8,27.85,ESE,113,0.0,0.0,92,0.00,,,0.00,WUHU216HW,2013-02-02 03:33:00,
2013-02-01 19:38:00,27.5,25.3,27.85,ESE,113,0.0,0.0,91,0.00,,,0.00,WUHU216HW,2013-02-02 03:38:00,
2013-02-01 19:43:00,27.5,25.3,27.85,ESE,113,0.0,0.0,91,0.00,,,0.00,WUHU216HW,2013-02-02 03:43:00,
2013-02-01 19:48:00,27.5,25.6,27.85,ESE,113,0.0,0.0,92,0.00,,,0.00,WUHU216HW,2013-02-02 03:48:00,
2013-02-01 19:53:00,27.4,25.4,27.85,ESE,113,0.0,0.0,92,0.00,,,0.00,WUHU216HW,2013-02-02 03:53:00,
2013-02-01 19:58:00,27.4,25.4,27.85,ESE,113,0.0,0.0,92,0.00,,,0.00,WUHU216HW,2013-02-02 03:58:00,
2013-02-01 20:03:00,27.0,25.0,27.85,ESE,113,0.0,0.0,92,0.00,,,0.00,WUHU216HW,2013-02-02 04:03:00,
2013-02-01 20:08:00,27.0,25.0,27.85,ESE,113,0.0,0.0,92,0.00,,,0.00,WUHU216HW,2013-02-02 04:08:00,
2013-02-01 20:13:00,27.0,25.0,27.86,WSW,248,0.0,0.0,92,0.00,,,0.00,WUHU216HW,2013-02-02 04:13:00,
2013-02-01 20:18:00,27.0,24.8,27.86,WSW,248,0.0,0.0,91,0.00,,,0.00,WUHU216HW,2013-02-02 04:18:00,
2013-02-01 20:23:00,26.6,24.4,27.86,WSW,248,0.0,0.0,91,0.00,,,0.00,WUHU216HW,2013-02-02 04:23:00,
2013-02-01 20:28:00,26.6,24.4,27.86,WSW,248,0.0,0.0,91,0.00,,,0.00,WUHU216HW,2013-02-02 04:28:00,
2013-02-01 20:33:00,26.5,24.2,27.86,WSW,248,0.0,0.0,91,0.00,,,0.00,WUHU216HW,2013-02-02 04:33:00,
2013-02-01 20:38:00,26.5,24.2,27.86,WSW,248,0.0,0.0,91,0.00,,,0.00,WUHU216HW,2013-02-02 04:38:00,
2013-02-01 20:43:00,26.6,24.4,27.86,WSW,248,0.0,0.0,91,0.00,,,0.00,WUHU216HW,2013-02-02 04:43:00,
2013-02-01 20:48:00,26.6,24.4,27.87,WSW,248,0.0,0.0,91,0.00,,,0.00,WUHU216HW,2013-02-02 04:48:00,
2013-02-01 20:53:00,26.5,24.2,27.87,WSW,248,0.0,0.0,91,0.00,,,0.00,WUHU216HW,2013-02-02 04:53:00,
2013-02-01 20:58:00,26.3,24.0,27.87,WSW,248,0.0,0.0,91,0.00,,,0.00,WUHU216HW,2013-02-02 04:58:00,
2013-02-01 21:00:00,26.3,24.0,27.87,WSW,248,0.0,0.0,91,0.00,,,0.00,WUHU216HW,2013-02-02 05:00:00,
2013-02-01 21:05:00,26.3,24.3,27.87,WSW,248,0.0,0.0,92,0.00,,,0.00,WUHU216HW,2013-02-02 05:05:00,
2013-02-01 21:10:00,26.1,24.1,27.87,WSW,248,0.0,0.0,92,0.00,,,0.00,WUHU216HW,2013-02-02 05:10:00,
2013-02-01 21:15:00,26.1,24.1,27.87,WSW,248,0.0,0.0,92,0.00,,,0.00,WUHU216HW,2013-02-02 05:15:00,
2013-02-01 21:20:00,25.9,24.0,27.87,WSW,248,0.0,0.0,92,0.00,,,0.00,WUHU216HW,2013-02-02 05:20:00,
2013-02-01 21:25:00,25.7,23.8,27.87,WSW,248,0.0,0.0,92,0.00,,,0.00,WUHU216HW,2013-02-02 05:25:00,
2013-02-01 21:30:00,25.7,23.8,27.87,WSW,248,0.0,0.0,92,0.00,,,0.00,WUHU216HW,2013-02-02 05:30:00,
2013-02-01 21:35:00,25.7,23.8,27.88,WSW,248,0.0,0.0,92,0.00,,,0.00,WUHU216HW,2013-02-02 05:35:00,
2013-02-01 21:40:00,25.6,23.6,27.88,WSW,248,0.0,0.0,92,0.00,,,0.00,WUHU216HW,2013-02-02 05:40:00,
2013-02-01 21:45:00,25.6,23.6,27.88,WSW,248,0.0,0.0,92,0.00,,,0.00,WUHU216HW,2013-02-02 05:45:00,
2013-02-01 21:50:00,25.7,23.8,27.89,WSW,248,0.0,0.0,92,0.00,,,0.00,WUHU216HW,2013-02-02 05:50:00,
2013-02-01 21:55:00,25.6,23.6,27.88,WSW,248,0.0,0.0,92,0.00,,,0.00,WUHU216HW,2013-02-02 05:55:00,
2013-02-01 22:00:00,25.6,23.6,27.89,WSW,248,0.0,0.0,92,0.00,,,0.00,WUHU216HW,2013-02-02 06:00:00,
2013-02-01 22:05:00,25.6,23.6,27.89,WSW,248,0.0,0.0,92,0.00,,,0.00,WUHU216HW,2013-02-02 06:05:00,
2013-02-01 22:10:00,25.6,23.6,27.89,WSW,248,0.0,0.0,92,0.00,,,0.00,WUHU216HW,2013-02-02 06:10:00,
2013-02-01 22:15:00,25.6,23.6,27.89,WSW,248,0.0,0.0,92,0.00,,,0.00,WUHU216HW,2013-02-02 06:15:00,
2013-02-01 22:20:00,25.4,23.4,27.89,WSW,248,0.0,0.0,92,0.00,,,0.00,WUHU216HW,2013-02-02 06:20:00,
2013-02-01 22:25:00,25.4,23.4,27.89,WSW,248,0.0,0.0,92,0.00,,,0.00,WUHU216HW,2013-02-02 06:25:00,
2013-02-01 22:30:00,25.2,23.2,27.89,South,180,0.2,0.2,92,0.00,,,0.00,WUHU216HW,2013-02-02 06:30:00,
2013-02-01 22:35:00,24.8,22.9,27.89,SSE,158,0.0,0.2,92,0.00,,,0.00,WUHU216HW,2013-02-02 06:35:00,
2013-02-01 22:40:00,24.8,22.9,27.89,South,180,0.0,0.0,92,0.00,,,0.00,WUHU216HW,2013-02-02 06:40:00,
2013-02-01 22:45:00,24.7,22.7,27.89,South,180,0.0,0.0,92,0.00,,,0.00,WUHU216HW,2013-02-02 06:45:00,
2013-02-01 22:50:00,24.7,22.7,27.89,South,180,0.0,0.0,92,0.00,,,0.00,WUHU216HW,2013-02-02 06:50:00,
2013-02-01 22:55:00,24.5,22.5,27.89,South,180,0.0,0.0,92,0.00,,,0.00,WUHU216HW,2013-02-02 06:55:00,
2013-02-01 23:00:00,24.5,22.5,27.89,South,180,0.0,0.0,92,0.00,,,0.00,WUHU216HW,2013-02-02 07:00:00,
2013-02-01 23:05:00,24.5,22.5,27.89,South,180,0.0,0.0,92,0.00,,,0.00,WUHU216HW,2013-02-02 07:05:00,
2013-02-01 23:10:00,24.1,22.2,27.89,SE,135,0.0,0.0,92,0.00,,,0.00,WUHU216HW,2013-02-02 07:10:00,
2013-02-01 23:15:00,23.9,22.0,27.89,SE,135,0.0,0.0,92,0.00,,,0.00,WUHU216HW,2013-02-02 07:15:00,
2013-02-01 23:20:00,23.8,21.8,27.89,SE,135,0.0,0.0,92,0.00,,,0.00,WUHU216HW,2013-02-02 07:20:00,
2013-02-01 23:25:00,23.6,21.6,27.89,SE,135,0.0,0.0,92,0.00,,,0.00,WUHU216HW,2013-02-02 07:25:00,
2013-02-01 23:30:00,23.6,21.6,27.89,SE,135,0.0,0.0,92,0.00,,,0.00,WUHU216HW,2013-02-02 07:30:00,
2013-02-01 23:35:00,23.6,21.6,27.89,SE,135,0.0,0.0,92,0.00,,,0.00,WUHU216HW,2013-02-02 07:35:00,
2013-02-01 23:40:00,23.6,21.6,27.89,SE,135,0.0,0.0,92,0.00,,,0.00,WUHU216HW,2013-02-02 07:40:00,
2013-02-01 23:45:00,23.4,21.4,27.89,SE,135,0.0,0.0,92,0.00,,,0.00,WUHU216HW,2013-02-02 07:45:00,
2013-02-01 23:50:00,23.4,21.4,27.89,SE,135,0.0,0.0,92,0.00,,,0.00,WUHU216HW,2013-02-02 07:50:00,
2013-02-01 23:55:00,23.4,21.4,27.89,SE,135,0.0,0.0,92,0.00,,,0.00,WUHU216HW,2013-02-02 07:55:00,